Terminal Aerodrome Forecast
Issued by NWS

Home | Current Version | Previous Version | Text Only | Print | Product List | Glossary On
Versions: 1 2 3 4 5 6 7 8 9 10 11 12 13 14 15 16
000
FTUS41 KGYX 290534
TAFLEB
TAF
KLEB 290534Z 2906/3006 30008KT P6SM BKN040
     FM291500 31012G22KT P6SM BKN050
     FM300000 32005KT P6SM SKC=

USA.gov is the U.S. government's official web portal to all federal, state and local government web resources and services.